sensor_id;sensor_type;location;lat;lon;timestamp;temperature;humidity
7530;DHT22;3806;52.270;10.544;2023-03-21T00:01:53;10.10;99.90
7530;DHT22;3806;52.270;10.544;2023-03-21T00:04:20;10.10;99.90
7530;DHT22;3806;52.270;10.544;2023-03-21T00:06:46;10.10;99.90
7530;DHT22;3806;52.270;10.544;2023-03-21T00:09:11;10.00;99.90
7530;DHT22;3806;52.270;10.544;2023-03-21T00:11:37;10.00;99.90
7530;DHT22;3806;52.270;10.544;2023-03-21T00:14:03;10.00;99.90
7530;DHT22;3806;52.270;10.544;2023-03-21T00:16:28;10.00;99.90
7530;DHT22;3806;52.270;10.544;2023-03-21T00:18:56;10.00;99.90
7530;DHT22;3806;52.270;10.544;2023-03-21T00:21:24;10.00;99.90
7530;DHT22;3806;52.270;10.544;2023-03-21T00:23:53;10.00;99.90
7530;DHT22;3806;52.270;10.544;2023-03-21T00:26:19;9.90;99.90
7530;DHT22;3806;52.270;10.544;2023-03-21T00:28:47;10.00;99.90
7530;DHT22;3806;52.270;10.544;2023-03-21T00:31:13;9.90;99.90
7530;DHT22;3806;52.270;10.544;2023-03-21T00:33:39;9.90;99.90
7530;DHT22;3806;52.270;10.544;2023-03-21T00:36:06;9.80;99.90
7530;DHT22;3806;52.270;10.544;2023-03-21T00:38:33;9.90;99.90
7530;DHT22;3806;52.270;10.544;2023-03-21T00:40:58;9.90;99.90
7530;DHT22;3806;52.270;10.544;2023-03-21T00:43:24;9.80;99.90
7530;DHT22;3806;52.270;10.544;2023-03-21T00:45:55;9.80;99.90
7530;DHT22;3806;52.270;10.544;2023-03-21T00:48:22;9.70;99.90
7530;DHT22;3806;52.270;10.544;2023-03-21T00:50:51;9.70;99.90
7530;DHT22;3806;52.270;10.544;2023-03-21T00:53:17;9.70;99.90
7530;DHT22;3806;52.270;10.544;2023-03-21T00:55:43;9.70;99.90
7530;DHT22;3806;52.270;10.544;2023-03-21T00:58:09;9.70;99.90
7530;DHT22;3806;52.270;10.544;2023-03-21T01:00:35;9.70;99.90
7530;DHT22;3806;52.270;10.544;2023-03-21T01:03:02;9.70;99.90
7530;DHT22;3806;52.270;10.544;2023-03-21T01:05:32;9.70;99.90
7530;DHT22;3806;52.270;10.544;2023-03-21T01:08:18;9.70;99.90
7530;DHT22;3806;52.270;10.544;2023-03-21T01:10:46;9.70;99.90
7530;DHT22;3806;52.270;10.544;2023-03-21T01:13:14;9.80;99.90
7530;DHT22;3806;52.270;10.544;2023-03-21T01:15:45;9.80;99.90
7530;DHT22;3806;52.270;10.544;2023-03-21T01:18:12;9.70;99.90
7530;DHT22;3806;52.270;10.544;2023-03-21T01:20:39;9.70;99.90
7530;DHT22;3806;52.270;10.544;2023-03-21T01:23:06;9.70;99.90
7530;DHT22;3806;52.270;10.544;2023-03-21T01:25:32;9.70;99.90
7530;DHT22;3806;52.270;10.544;2023-03-21T01:27:57;9.70;99.90
7530;DHT22;3806;52.270;10.544;2023-03-21T01:30:23;9.70;99.90
7530;DHT22;3806;52.270;10.544;2023-03-21T01:32:48;9.70;99.90
7530;DHT22;3806;52.270;10.544;2023-03-21T01:35:14;9.70;99.90
7530;DHT22;3806;52.270;10.544;2023-03-21T01:37:40;9.70;99.90
7530;DHT22;3806;52.270;10.544;2023-03-21T01:40:06;9.60;99.90
7530;DHT22;3806;52.270;10.544;2023-03-21T01:42:37;9.60;99.90
7530;DHT22;3806;52.270;10.544;2023-03-21T01:45:06;9.70;99.90
7530;DHT22;3806;52.270;10.544;2023-03-21T01:47:50;9.70;99.90
7530;DHT22;3806;52.270;10.544;2023-03-21T01:50:15;9.70;99.90
7530;DHT22;3806;52.270;10.544;2023-03-21T01:52:41;9.60;99.90
7530;DHT22;3806;52.270;10.544;2023-03-21T01:55:09;9.60;99.90
7530;DHT22;3806;52.270;10.544;2023-03-21T01:57:45;9.60;99.90
7530;DHT22;3806;52.270;10.544;2023-03-21T02:00:15;9.60;99.90
7530;DHT22;3806;52.270;10.544;2023-03-21T02:02:43;9.60;99.90
7530;DHT22;3806;52.270;10.544;2023-03-21T02:05:23;9.60;99.90
7530;DHT22;3806;52.270;10.544;2023-03-21T02:07:52;9.60;99.90
7530;DHT22;3806;52.270;10.544;2023-03-21T02:10:17;9.60;99.90
7530;DHT22;3806;52.270;10.544;2023-03-21T02:12:43;9.60;99.90
7530;DHT22;3806;52.270;10.544;2023-03-21T02:15:09;9.70;99.90
7530;DHT22;3806;52.270;10.544;2023-03-21T02:17:37;9.70;99.90
7530;DHT22;3806;52.270;10.544;2023-03-21T02:26:32;9.60;99.90
7530;DHT22;3806;52.270;10.544;2023-03-21T02:29:34;9.60;99.90
7530;DHT22;3806;52.270;10.544;2023-03-21T02:37:04;9.70;99.90
7530;DHT22;3806;52.270;10.544;2023-03-21T02:42:30;9.60;99.90
7530;DHT22;3806;52.270;10.544;2023-03-21T02:45:24;9.70;99.90
7530;DHT22;3806;52.270;10.544;2023-03-21T02:47:52;9.70;99.90
7530;DHT22;3806;52.270;10.544;2023-03-21T02:50:27;9.60;99.90
7530;DHT22;3806;52.270;10.544;2023-03-21T02:52:57;9.60;99.90
7530;DHT22;3806;52.270;10.544;2023-03-21T02:55:25;9.50;99.90
7530;DHT22;3806;52.270;10.544;2023-03-21T02:57:55;9.50;99.90
7530;DHT22;3806;52.270;10.544;2023-03-21T03:00:24;9.50;99.90
7530;DHT22;3806;52.270;10.544;2023-03-21T03:02:50;9.50;99.90
7530;DHT22;3806;52.270;10.544;2023-03-21T03:05:21;9.50;99.90
7530;DHT22;3806;52.270;10.544;2023-03-21T03:08:19;9.50;99.90
7530;DHT22;3806;52.270;10.544;2023-03-21T03:11:13;9.60;99.90
7530;DHT22;3806;52.270;10.544;2023-03-21T03:19:27;9.70;99.90
7530;DHT22;3806;52.270;10.544;2023-03-21T03:22:08;9.70;99.90
7530;DHT22;3806;52.270;10.544;2023-03-21T03:24:41;9.70;99.90
7530;DHT22;3806;52.270;10.544;2023-03-21T03:27:14;9.70;99.90
7530;DHT22;3806;52.270;10.544;2023-03-21T03:29:43;9.70;99.90
7530;DHT22;3806;52.270;10.544;2023-03-21T03:32:16;9.70;99.90
7530;DHT22;3806;52.270;10.544;2023-03-21T03:34:45;9.70;99.90
7530;DHT22;3806;52.270;10.544;2023-03-21T03:37:16;9.80;99.90
7530;DHT22;3806;52.270;10.544;2023-03-21T03:39:50;9.70;99.90
7530;DHT22;3806;52.270;10.544;2023-03-21T03:42:22;9.70;99.90
7530;DHT22;3806;52.270;10.544;2023-03-21T03:44:48;9.70;99.90
7530;DHT22;3806;52.270;10.544;2023-03-21T03:47:29;9.70;99.90
7530;DHT22;3806;52.270;10.544;2023-03-21T03:50:11;9.80;99.90
7530;DHT22;3806;52.270;10.544;2023-03-21T03:52:51;9.80;99.90
7530;DHT22;3806;52.270;10.544;2023-03-21T03:55:19;9.70;99.90
7530;DHT22;3806;52.270;10.544;2023-03-21T03:57:47;9.70;99.90
7530;DHT22;3806;52.270;10.544;2023-03-21T04:00:14;9.70;99.90
7530;DHT22;3806;52.270;10.544;2023-03-21T04:02:41;9.70;99.90
7530;DHT22;3806;52.270;10.544;2023-03-21T04:05:07;9.80;99.90
7530;DHT22;3806;52.270;10.544;2023-03-21T04:07:33;9.80;99.90
7530;DHT22;3806;52.270;10.544;2023-03-21T04:09:58;9.80;99.90
7530;DHT22;3806;52.270;10.544;2023-03-21T04:12:24;9.90;99.90
7530;DHT22;3806;52.270;10.544;2023-03-21T04:14:50;9.90;99.90
7530;DHT22;3806;52.270;10.544;2023-03-21T04:17:16;9.90;99.90
7530;DHT22;3806;52.270;10.544;2023-03-21T04:19:43;9.90;99.90
7530;DHT22;3806;52.270;10.544;2023-03-21T04:22:09;9.90;99.90
7530;DHT22;3806;52.270;10.544;2023-03-21T04:24:36;9.90;99.90
7530;DHT22;3806;52.270;10.544;2023-03-21T04:27:01;10.00;99.90
7530;DHT22;3806;52.270;10.544;2023-03-21T04:29:27;10.00;99.90
7530;DHT22;3806;52.270;10.544;2023-03-21T04:31:54;10.00;99.90
7530;DHT22;3806;52.270;10.544;2023-03-21T04:34:20;10.00;99.90
7530;DHT22;3806;52.270;10.544;2023-03-21T04:36:48;10.00;99.90
7530;DHT22;3806;52.270;10.544;2023-03-21T04:39:15;10.00;99.90
7530;DHT22;3806;52.270;10.544;2023-03-21T04:41:43;9.90;99.90
7530;DHT22;3806;52.270;10.544;2023-03-21T04:44:10;9.90;99.90
7530;DHT22;3806;52.270;10.544;2023-03-21T04:46:36;9.90;99.90
7530;DHT22;3806;52.270;10.544;2023-03-21T04:49:03;9.80;99.90
7530;DHT22;3806;52.270;10.544;2023-03-21T04:51:29;9.80;99.90
7530;DHT22;3806;52.270;10.544;2023-03-21T04:53:55;9.80;99.90
7530;DHT22;3806;52.270;10.544;2023-03-21T04:56:25;9.90;99.90
7530;DHT22;3806;52.270;10.544;2023-03-21T04:59:02;9.90;99.90
7530;DHT22;3806;52.270;10.544;2023-03-21T05:01:29;9.90;99.90
7530;DHT22;3806;52.270;10.544;2023-03-21T05:03:57;9.80;99.90
7530;DHT22;3806;52.270;10.544;2023-03-21T05:06:23;9.90;99.90
7530;DHT22;3806;52.270;10.544;2023-03-21T05:08:48;9.90;99.90
7530;DHT22;3806;52.270;10.544;2023-03-21T05:11:13;10.00;99.90
7530;DHT22;3806;52.270;10.544;2023-03-21T05:13:39;10.00;99.90
7530;DHT22;3806;52.270;10.544;2023-03-21T05:16:06;10.00;99.90
7530;DHT22;3806;52.270;10.544;2023-03-21T05:18:32;10.00;99.90
7530;DHT22;3806;52.270;10.544;2023-03-21T05:20:59;9.90;99.90
7530;DHT22;3806;52.270;10.544;2023-03-21T05:23:24;10.00;99.90
7530;DHT22;3806;52.270;10.544;2023-03-21T05:25:50;10.00;99.90
7530;DHT22;3806;52.270;10.544;2023-03-21T05:28:16;10.00;99.90
7530;DHT22;3806;52.270;10.544;2023-03-21T05:30:45;9.90;99.90
7530;DHT22;3806;52.270;10.544;2023-03-21T05:33:11;9.90;99.90
7530;DHT22;3806;52.270;10.544;2023-03-21T05:35:37;9.90;99.90
7530;DHT22;3806;52.270;10.544;2023-03-21T05:38:03;9.90;99.90
7530;DHT22;3806;52.270;10.544;2023-03-21T05:40:28;9.80;99.90
7530;DHT22;3806;52.270;10.544;2023-03-21T05:42:54;9.90;99.90
7530;DHT22;3806;52.270;10.544;2023-03-21T05:45:20;9.90;99.90
7530;DHT22;3806;52.270;10.544;2023-03-21T05:47:45;9.90;99.90
7530;DHT22;3806;52.270;10.544;2023-03-21T05:50:11;9.80;99.90
7530;DHT22;3806;52.270;10.544;2023-03-21T05:52:38;9.90;99.90
7530;DHT22;3806;52.270;10.544;2023-03-21T05:55:04;9.80;99.90
7530;DHT22;3806;52.270;10.544;2023-03-21T05:57:29;9.80;99.90
7530;DHT22;3806;52.270;10.544;2023-03-21T05:59:59;9.90;99.90
7530;DHT22;3806;52.270;10.544;2023-03-21T06:02:25;9.80;99.90
7530;DHT22;3806;52.270;10.544;2023-03-21T06:04:50;9.90;99.90
7530;DHT22;3806;52.270;10.544;2023-03-21T06:07:16;9.90;99.90
7530;DHT22;3806;52.270;10.544;2023-03-21T06:09:41;9.90;99.90
7530;DHT22;3806;52.270;10.544;2023-03-21T06:12:07;9.90;99.90
7530;DHT22;3806;52.270;10.544;2023-03-21T06:14:33;10.00;99.90
7530;DHT22;3806;52.270;10.544;2023-03-21T06:16:58;9.90;99.90
7530;DHT22;3806;52.270;10.544;2023-03-21T06:19:24;10.00;99.90
7530;DHT22;3806;52.270;10.544;2023-03-21T06:21:50;10.00;99.90
7530;DHT22;3806;52.270;10.544;2023-03-21T06:24:16;10.00;99.90
7530;DHT22;3806;52.270;10.544;2023-03-21T06:26:42;10.10;99.90
7530;DHT22;3806;52.270;10.544;2023-03-21T06:29:08;10.10;99.90
7530;DHT22;3806;52.270;10.544;2023-03-21T06:31:33;10.00;99.90
7530;DHT22;3806;52.270;10.544;2023-03-21T06:33:59;10.10;99.90
7530;DHT22;3806;52.270;10.544;2023-03-21T06:36:24;10.20;99.90
7530;DHT22;3806;52.270;10.544;2023-03-21T06:38:50;10.20;99.90
7530;DHT22;3806;52.270;10.544;2023-03-21T06:41:16;10.20;99.90
7530;DHT22;3806;52.270;10.544;2023-03-21T06:43:42;10.30;99.90
7530;DHT22;3806;52.270;10.544;2023-03-21T06:46:07;10.20;99.90
7530;DHT22;3806;52.270;10.544;2023-03-21T06:48:33;10.20;99.90
7530;DHT22;3806;52.270;10.544;2023-03-21T06:50:58;10.20;99.90
7530;DHT22;3806;52.270;10.544;2023-03-21T06:53:25;10.30;99.90
7530;DHT22;3806;52.270;10.544;2023-03-21T06:55:54;10.30;99.90
7530;DHT22;3806;52.270;10.544;2023-03-21T06:58:21;10.40;99.90
7530;DHT22;3806;52.270;10.544;2023-03-21T07:00:46;10.40;99.90
7530;DHT22;3806;52.270;10.544;2023-03-21T07:03:13;10.50;99.90
7530;DHT22;3806;52.270;10.544;2023-03-21T07:05:39;10.50;99.90
7530;DHT22;3806;52.270;10.544;2023-03-21T07:08:06;10.50;99.90
7530;DHT22;3806;52.270;10.544;2023-03-21T07:10:38;10.60;99.90
7530;DHT22;3806;52.270;10.544;2023-03-21T07:13:04;10.60;99.90
7530;DHT22;3806;52.270;10.544;2023-03-21T07:15:30;10.70;99.90
7530;DHT22;3806;52.270;10.544;2023-03-21T07:17:56;10.70;99.90
7530;DHT22;3806;52.270;10.544;2023-03-21T07:20:22;10.80;99.90
7530;DHT22;3806;52.270;10.544;2023-03-21T07:22:47;10.80;99.90
7530;DHT22;3806;52.270;10.544;2023-03-21T07:25:13;10.90;99.90
7530;DHT22;3806;52.270;10.544;2023-03-21T07:27:39;11.00;99.90
7530;DHT22;3806;52.270;10.544;2023-03-21T07:30:05;11.10;99.90
7530;DHT22;3806;52.270;10.544;2023-03-21T07:32:32;11.10;99.90
7530;DHT22;3806;52.270;10.544;2023-03-21T07:34:59;11.10;99.90
7530;DHT22;3806;52.270;10.544;2023-03-21T07:37:25;11.20;99.90
7530;DHT22;3806;52.270;10.544;2023-03-21T07:39:51;11.20;99.90
7530;DHT22;3806;52.270;10.544;2023-03-21T07:42:17;11.30;99.90
7530;DHT22;3806;52.270;10.544;2023-03-21T07:44:42;11.30;99.90
7530;DHT22;3806;52.270;10.544;2023-03-21T07:47:08;11.30;99.90
7530;DHT22;3806;52.270;10.544;2023-03-21T07:49:33;11.40;99.90
7530;DHT22;3806;52.270;10.544;2023-03-21T07:51:59;11.40;99.90
7530;DHT22;3806;52.270;10.544;2023-03-21T07:54:26;11.40;99.90
7530;DHT22;3806;52.270;10.544;2023-03-21T07:56:53;11.50;99.90
7530;DHT22;3806;52.270;10.544;2023-03-21T07:59:18;11.40;99.90
7530;DHT22;3806;52.270;10.544;2023-03-21T08:01:44;11.50;99.90
7530;DHT22;3806;52.270;10.544;2023-03-21T08:04:10;11.50;99.90
7530;DHT22;3806;52.270;10.544;2023-03-21T08:06:35;11.50;99.90
7530;DHT22;3806;52.270;10.544;2023-03-21T08:09:01;11.50;99.90
7530;DHT22;3806;52.270;10.544;2023-03-21T08:11:28;11.60;99.90
7530;DHT22;3806;52.270;10.544;2023-03-21T08:13:56;11.60;99.90
7530;DHT22;3806;52.270;10.544;2023-03-21T08:16:21;11.70;99.90
7530;DHT22;3806;52.270;10.544;2023-03-21T08:18:47;11.60;99.90
7530;DHT22;3806;52.270;10.544;2023-03-21T08:21:13;11.70;99.90
7530;DHT22;3806;52.270;10.544;2023-03-21T08:23:38;11.70;99.90
7530;DHT22;3806;52.270;10.544;2023-03-21T08:26:04;11.60;99.90
7530;DHT22;3806;52.270;10.544;2023-03-21T08:28:30;11.60;99.90
7530;DHT22;3806;52.270;10.544;2023-03-21T08:30:55;11.60;99.90
7530;DHT22;3806;52.270;10.544;2023-03-21T08:33:21;11.50;99.90
7530;DHT22;3806;52.270;10.544;2023-03-21T08:35:47;11.50;99.90
7530;DHT22;3806;52.270;10.544;2023-03-21T08:38:12;11.50;99.90
7530;DHT22;3806;52.270;10.544;2023-03-21T08:40:38;11.50;99.90
7530;DHT22;3806;52.270;10.544;2023-03-21T08:43:04;11.50;99.90
7530;DHT22;3806;52.270;10.544;2023-03-21T08:45:30;11.60;99.90
7530;DHT22;3806;52.270;10.544;2023-03-21T08:47:56;11.70;99.90
7530;DHT22;3806;52.270;10.544;2023-03-21T08:50:23;11.80;99.90
7530;DHT22;3806;52.270;10.544;2023-03-21T08:52:50;11.90;99.90
7530;DHT22;3806;52.270;10.544;2023-03-21T08:55:17;12.10;99.90
7530;DHT22;3806;52.270;10.544;2023-03-21T08:57:43;12.30;99.90
7530;DHT22;3806;52.270;10.544;2023-03-21T09:00:12;12.40;99.90
7530;DHT22;3806;52.270;10.544;2023-03-21T09:02:39;12.60;99.90
7530;DHT22;3806;52.270;10.544;2023-03-21T09:05:05;12.70;99.90
7530;DHT22;3806;52.270;10.544;2023-03-21T09:07:32;12.90;99.90
7530;DHT22;3806;52.270;10.544;2023-03-21T09:10:03;12.90;99.90
7530;DHT22;3806;52.270;10.544;2023-03-21T09:12:30;12.90;99.90
7530;DHT22;3806;52.270;10.544;2023-03-21T09:14:55;13.00;99.90
7530;DHT22;3806;52.270;10.544;2023-03-21T09:17:21;12.90;99.90
7530;DHT22;3806;52.270;10.544;2023-03-21T09:19:46;12.90;99.90
7530;DHT22;3806;52.270;10.544;2023-03-21T09:22:14;12.90;99.90
7530;DHT22;3806;52.270;10.544;2023-03-21T09:24:45;12.90;99.90
7530;DHT22;3806;52.270;10.544;2023-03-21T09:27:12;13.00;99.80
7530;DHT22;3806;52.270;10.544;2023-03-21T09:29:39;13.00;99.80
7530;DHT22;3806;52.270;10.544;2023-03-21T09:32:07;12.90;99.50
7530;DHT22;3806;52.270;10.544;2023-03-21T09:34:33;12.90;99.80
7530;DHT22;3806;52.270;10.544;2023-03-21T09:37:01;12.80;99.90
7530;DHT22;3806;52.270;10.544;2023-03-21T09:39:27;12.80;99.90
7530;DHT22;3806;52.270;10.544;2023-03-21T09:47:28;12.70;99.90
7530;DHT22;3806;52.270;10.544;2023-03-21T09:50:06;12.80;99.90
7530;DHT22;3806;52.270;10.544;2023-03-21T09:55:24;12.80;99.90
7530;DHT22;3806;52.270;10.544;2023-03-21T09:58:23;12.80;99.90
7530;DHT22;3806;52.270;10.544;2023-03-21T10:01:02;12.90;99.90
7530;DHT22;3806;52.270;10.544;2023-03-21T10:03:32;12.90;99.90
7530;DHT22;3806;52.270;10.544;2023-03-21T10:06:03;13.00;99.90
7530;DHT22;3806;52.270;10.544;2023-03-21T10:08:38;13.00;99.90
7530;DHT22;3806;52.270;10.544;2023-03-21T10:11:20;13.00;99.90
7530;DHT22;3806;52.270;10.544;2023-03-21T10:13:53;13.10;99.90
7530;DHT22;3806;52.270;10.544;2023-03-21T10:16:28;13.10;99.90
7530;DHT22;3806;52.270;10.544;2023-03-21T10:18:55;13.20;99.90
7530;DHT22;3806;52.270;10.544;2023-03-21T10:21:26;13.10;99.90
7530;DHT22;3806;52.270;10.544;2023-03-21T10:23:56;13.20;99.90
7530;DHT22;3806;52.270;10.544;2023-03-21T10:26:25;13.20;99.90
7530;DHT22;3806;52.270;10.544;2023-03-21T10:28:53;13.10;99.90
7530;DHT22;3806;52.270;10.544;2023-03-21T10:31:22;12.90;99.90
7530;DHT22;3806;52.270;10.544;2023-03-21T10:33:55;13.00;99.90
7530;DHT22;3806;52.270;10.544;2023-03-21T10:36:27;13.00;99.90
7530;DHT22;3806;52.270;10.544;2023-03-21T10:39:04;13.00;99.90
7530;DHT22;3806;52.270;10.544;2023-03-21T10:41:30;13.10;99.90
7530;DHT22;3806;52.270;10.544;2023-03-21T10:44:22;13.10;99.90
7530;DHT22;3806;52.270;10.544;2023-03-21T10:46:58;13.10;99.90
7530;DHT22;3806;52.270;10.544;2023-03-21T10:49:24;13.10;99.90
7530;DHT22;3806;52.270;10.544;2023-03-21T10:51:53;13.20;99.90
7530;DHT22;3806;52.270;10.544;2023-03-21T10:54:21;13.20;99.90
7530;DHT22;3806;52.270;10.544;2023-03-21T10:57:08;13.30;99.90
7530;DHT22;3806;52.270;10.544;2023-03-21T10:59:41;13.50;99.90
7530;DHT22;3806;52.270;10.544;2023-03-21T11:04:49;13.70;99.80
7530;DHT22;3806;52.270;10.544;2023-03-21T11:07:17;13.80;99.50
7530;DHT22;3806;52.270;10.544;2023-03-21T11:09:50;13.90;99.30
7530;DHT22;3806;52.270;10.544;2023-03-21T11:12:39;13.90;99.10
7530;DHT22;3806;52.270;10.544;2023-03-21T11:15:29;14.10;99.30
7530;DHT22;3806;52.270;10.544;2023-03-21T11:17:56;14.50;98.80
7530;DHT22;3806;52.270;10.544;2023-03-21T11:20:23;14.90;97.50
7530;DHT22;3806;52.270;10.544;2023-03-21T11:22:53;15.10;96.30
7530;DHT22;3806;52.270;10.544;2023-03-21T11:25:22;15.20;95.70
7530;DHT22;3806;52.270;10.544;2023-03-21T11:27:53;15.30;95.70
7530;DHT22;3806;52.270;10.544;2023-03-21T11:30:25;15.30;95.30
7530;DHT22;3806;52.270;10.544;2023-03-21T11:32:57;15.30;95.20
7530;DHT22;3806;52.270;10.544;2023-03-21T11:35:36;15.20;95.20
7530;DHT22;3806;52.270;10.544;2023-03-21T11:38:03;14.90;95.60
7530;DHT22;3806;52.270;10.544;2023-03-21T11:40:35;14.70;96.00
7530;DHT22;3806;52.270;10.544;2023-03-21T11:43:03;14.70;96.10
7530;DHT22;3806;52.270;10.544;2023-03-21T11:48:30;14.60;96.40
7530;DHT22;3806;52.270;10.544;2023-03-21T11:51:15;14.60;96.40
7530;DHT22;3806;52.270;10.544;2023-03-21T11:54:05;14.60;96.00
7530;DHT22;3806;52.270;10.544;2023-03-21T11:56:42;14.60;95.90
7530;DHT22;3806;52.270;10.544;2023-03-21T11:59:32;14.60;96.10
7530;DHT22;3806;52.270;10.544;2023-03-21T12:02:13;14.60;96.30
7530;DHT22;3806;52.270;10.544;2023-03-21T12:05:17;14.60;96.60
7530;DHT22;3806;52.270;10.544;2023-03-21T12:11:10;14.50;97.70
7530;DHT22;3806;52.270;10.544;2023-03-21T12:22:09;14.50;99.10
7530;DHT22;3806;52.270;10.544;2023-03-21T12:24:44;14.50;99.30
7530;DHT22;3806;52.270;10.544;2023-03-21T12:27:24;14.50;99.40
7530;DHT22;3806;52.270;10.544;2023-03-21T12:30:20;14.50;99.60
7530;DHT22;3806;52.270;10.544;2023-03-21T12:32:55;14.50;99.80
7530;DHT22;3806;52.270;10.544;2023-03-21T12:35:51;14.50;99.90
7530;DHT22;3806;52.270;10.544;2023-03-21T12:38:24;14.60;99.50
7530;DHT22;3806;52.270;10.544;2023-03-21T12:43:47;14.70;99.10
7530;DHT22;3806;52.270;10.544;2023-03-21T12:46:23;14.70;99.00
7530;DHT22;3806;52.270;10.544;2023-03-21T12:48:52;14.70;99.10
7530;DHT22;3806;52.270;10.544;2023-03-21T12:51:23;14.70;99.20
7530;DHT22;3806;52.270;10.544;2023-03-21T12:56:48;14.70;99.10
7530;DHT22;3806;52.270;10.544;2023-03-21T13:01:59;14.60;99.30
7530;DHT22;3806;52.270;10.544;2023-03-21T13:04:46;14.60;99.70
7530;DHT22;3806;52.270;10.544;2023-03-21T13:07:18;14.60;99.90
7530;DHT22;3806;52.270;10.544;2023-03-21T13:09:45;14.50;99.90
7530;DHT22;3806;52.270;10.544;2023-03-21T13:12:43;14.50;99.90
7530;DHT22;3806;52.270;10.544;2023-03-21T13:16:29;14.50;99.90
7530;DHT22;3806;52.270;10.544;2023-03-21T13:24:40;14.40;99.90
7530;DHT22;3806;52.270;10.544;2023-03-21T13:29:56;14.30;99.90
7530;DHT22;3806;52.270;10.544;2023-03-21T13:32:28;14.30;99.90
7530;DHT22;3806;52.270;10.544;2023-03-21T13:34:58;14.20;99.90
7530;DHT22;3806;52.270;10.544;2023-03-21T13:37:32;14.20;99.90
7530;DHT22;3806;52.270;10.544;2023-03-21T13:40:05;14.10;99.90
7530;DHT22;3806;52.270;10.544;2023-03-21T13:42:43;14.10;99.90
7530;DHT22;3806;52.270;10.544;2023-03-21T13:45:10;14.00;99.90
7530;DHT22;3806;52.270;10.544;2023-03-21T13:47:52;14.00;99.90
7530;DHT22;3806;52.270;10.544;2023-03-21T13:50:22;13.90;99.90
7530;DHT22;3806;52.270;10.544;2023-03-21T13:55:28;13.90;99.90
7530;DHT22;3806;52.270;10.544;2023-03-21T13:57:55;13.80;99.90
7530;DHT22;3806;52.270;10.544;2023-03-21T14:00:28;13.80;99.90
7530;DHT22;3806;52.270;10.544;2023-03-21T14:03:00;14.00;99.90
7530;DHT22;3806;52.270;10.544;2023-03-21T14:05:30;13.90;99.90
7530;DHT22;3806;52.270;10.544;2023-03-21T14:08:00;13.90;99.90
7530;DHT22;3806;52.270;10.544;2023-03-21T14:10:37;13.80;99.90
7530;DHT22;3806;52.270;10.544;2023-03-21T14:13:08;13.80;99.90
7530;DHT22;3806;52.270;10.544;2023-03-21T14:15:50;13.70;99.90
7530;DHT22;3806;52.270;10.544;2023-03-21T14:18:19;13.70;99.90
7530;DHT22;3806;52.270;10.544;2023-03-21T14:20:54;13.70;99.90
7530;DHT22;3806;52.270;10.544;2023-03-21T14:23:20;13.70;99.90
7530;DHT22;3806;52.270;10.544;2023-03-21T14:25:47;13.70;99.90
7530;DHT22;3806;52.270;10.544;2023-03-21T14:28:19;13.70;99.90
7530;DHT22;3806;52.270;10.544;2023-03-21T14:30:50;13.70;99.90
7530;DHT22;3806;52.270;10.544;2023-03-21T14:33:22;13.60;99.90
7530;DHT22;3806;52.270;10.544;2023-03-21T14:35:50;13.70;99.90
7530;DHT22;3806;52.270;10.544;2023-03-21T14:38:21;13.60;99.90
7530;DHT22;3806;52.270;10.544;2023-03-21T14:40:49;13.60;99.90
7530;DHT22;3806;52.270;10.544;2023-03-21T14:43:17;13.60;99.90
7530;DHT22;3806;52.270;10.544;2023-03-21T14:45:46;13.50;99.90
7530;DHT22;3806;52.270;10.544;2023-03-21T14:48:15;13.50;99.90
7530;DHT22;3806;52.270;10.544;2023-03-21T14:50:52;13.50;99.90
7530;DHT22;3806;52.270;10.544;2023-03-21T14:53:30;13.50;99.90
7530;DHT22;3806;52.270;10.544;2023-03-21T14:56:08;13.50;99.90
7530;DHT22;3806;52.270;10.544;2023-03-21T14:58:38;13.40;99.90
7530;DHT22;3806;52.270;10.544;2023-03-21T15:01:05;13.30;99.90
7530;DHT22;3806;52.270;10.544;2023-03-21T15:03:33;13.30;99.90
7530;DHT22;3806;52.270;10.544;2023-03-21T15:05:59;13.30;99.90
7530;DHT22;3806;52.270;10.544;2023-03-21T15:08:27;13.20;99.90
7530;DHT22;3806;52.270;10.544;2023-03-21T15:10:55;13.20;99.90
7530;DHT22;3806;52.270;10.544;2023-03-21T15:13:25;13.20;99.90
7530;DHT22;3806;52.270;10.544;2023-03-21T15:15:52;13.20;99.90
7530;DHT22;3806;52.270;10.544;2023-03-21T15:18:25;13.20;99.90
7530;DHT22;3806;52.270;10.544;2023-03-21T15:20:52;13.10;99.90
7530;DHT22;3806;52.270;10.544;2023-03-21T15:23:30;13.00;99.90
7530;DHT22;3806;52.270;10.544;2023-03-21T15:26:01;13.00;99.90
7530;DHT22;3806;52.270;10.544;2023-03-21T15:28:27;13.00;99.90
7530;DHT22;3806;52.270;10.544;2023-03-21T15:30:53;12.90;99.90
7530;DHT22;3806;52.270;10.544;2023-03-21T15:33:19;12.90;99.90
7530;DHT22;3806;52.270;10.544;2023-03-21T15:35:53;12.80;99.90
7530;DHT22;3806;52.270;10.544;2023-03-21T15:38:27;12.90;99.90
7530;DHT22;3806;52.270;10.544;2023-03-21T15:43:41;12.80;99.90
7530;DHT22;3806;52.270;10.544;2023-03-21T15:46:13;12.80;99.90
7530;DHT22;3806;52.270;10.544;2023-03-21T15:48:39;12.80;99.90
7530;DHT22;3806;52.270;10.544;2023-03-21T15:51:09;12.80;99.90
7530;DHT22;3806;52.270;10.544;2023-03-21T15:53:36;12.80;99.90
7530;DHT22;3806;52.270;10.544;2023-03-21T15:56:04;12.90;99.90
7530;DHT22;3806;52.270;10.544;2023-03-21T15:58:40;12.80;99.90
7530;DHT22;3806;52.270;10.544;2023-03-21T16:01:21;12.80;99.90
7530;DHT22;3806;52.270;10.544;2023-03-21T16:03:54;12.80;99.90
7530;DHT22;3806;52.270;10.544;2023-03-21T16:06:21;12.80;99.90
7530;DHT22;3806;52.270;10.544;2023-03-21T16:09:12;12.80;99.90
7530;DHT22;3806;52.270;10.544;2023-03-21T16:11:52;12.70;99.90
7530;DHT22;3806;52.270;10.544;2023-03-21T16:14:18;12.80;99.90
7530;DHT22;3806;52.270;10.544;2023-03-21T16:16:44;12.70;99.90
7530;DHT22;3806;52.270;10.544;2023-03-21T16:19:10;12.60;99.90
7530;DHT22;3806;52.270;10.544;2023-03-21T16:21:36;12.60;99.90
7530;DHT22;3806;52.270;10.544;2023-03-21T16:24:03;12.60;99.90
7530;DHT22;3806;52.270;10.544;2023-03-21T16:26:32;12.60;99.90
7530;DHT22;3806;52.270;10.544;2023-03-21T16:28:58;12.50;99.90
7530;DHT22;3806;52.270;10.544;2023-03-21T16:31:27;12.60;99.90
7530;DHT22;3806;52.270;10.544;2023-03-21T16:33:53;12.60;99.90
7530;DHT22;3806;52.270;10.544;2023-03-21T16:36:24;12.60;99.90
7530;DHT22;3806;52.270;10.544;2023-03-21T16:38:51;12.60;99.90
7530;DHT22;3806;52.270;10.544;2023-03-21T16:41:17;12.70;99.90
7530;DHT22;3806;52.270;10.544;2023-03-21T16:43:43;12.60;99.90
7530;DHT22;3806;52.270;10.544;2023-03-21T16:48:43;12.40;99.90
7530;DHT22;3806;52.270;10.544;2023-03-21T16:51:13;12.30;99.90
7530;DHT22;3806;52.270;10.544;2023-03-21T16:53:39;12.30;99.90
7530;DHT22;3806;52.270;10.544;2023-03-21T16:56:04;12.30;99.90
7530;DHT22;3806;52.270;10.544;2023-03-21T16:58:30;12.30;99.90
7530;DHT22;3806;52.270;10.544;2023-03-21T17:00:56;12.30;99.90
7530;DHT22;3806;52.270;10.544;2023-03-21T17:03:21;12.30;99.90
7530;DHT22;3806;52.270;10.544;2023-03-21T17:05:47;12.30;99.90
7530;DHT22;3806;52.270;10.544;2023-03-21T17:08:18;12.20;99.90
7530;DHT22;3806;52.270;10.544;2023-03-21T17:10:44;12.20;99.90
7530;DHT22;3806;52.270;10.544;2023-03-21T17:13:10;12.10;99.90
7530;DHT22;3806;52.270;10.544;2023-03-21T17:15:36;12.10;99.90
7530;DHT22;3806;52.270;10.544;2023-03-21T17:18:01;12.10;99.90